Time;durP1;ratioP1;P1;durP2;ratioP2;P2;SDS_P1;SDS_P2;PMS_P1;PMS_P2;Temp;Humidity;BMP_temperature;BMP_pressure;BME280_temperature;BME280_humidity;BME280_pressure;Samples;Min_cycle;Max_cycle;Signal;HPM_P1;HPM_P2
2022/08/10 00:01:50;;;;;;;13.20;5.00;;;;;;;15.29;52.39;99817.58;107956;1274;97018;-66
2022/08/10 00:04:23;;;;;;;12.20;5.00;;;;;;;15.28;52.52;99817.68;107791;1274;107829;-67
2022/08/10 00:06:53;;;;;;;13.70;5.60;;;;;;;15.24;52.55;99818.66;107914;1274;97133;-66
2022/08/10 00:09:24;;;;;;;13.00;5.10;;;;;;;15.21;52.57;99815.40;107755;1274;97098;-66
2022/08/10 00:11:52;;;;;;;12.40;5.10;;;;;;;15.16;52.59;99813.64;107913;1274;112983;-66
2022/08/10 00:14:20;;;;;;;13.40;4.90;;;;;;;15.11;52.69;99813.48;107951;1274;97063;-66
2022/08/10 00:16:48;;;;;;;14.50;4.90;;;;;;;15.11;52.83;99814.86;107934;1274;107863;-66
2022/08/10 00:19:16;;;;;;;11.80;5.10;;;;;;;15.10;52.86;99816.04;107892;1274;97042;-66
2022/08/10 00:21:46;;;;;;;14.10;5.20;;;;;;;15.07;52.95;99815.77;107929;1274;97459;-68
2022/08/10 00:24:14;;;;;;;11.60;5.20;;;;;;;15.04;53.03;99814.59;107937;1274;112566;-67
2022/08/10 00:26:43;;;;;;;12.50;5.20;;;;;;;15.03;53.02;99815.36;107918;1274;97492;-66
2022/08/10 00:29:31;;;;;;;15.10;5.40;;;;;;;14.98;53.19;99810.39;107929;1274;107986;-65
2022/08/10 00:31:59;;;;;;;15.70;5.90;;;;;;;14.96;53.21;99811.98;107932;1274;97183;-65
2022/08/10 00:34:28;;;;;;;12.90;5.30;;;;;;;14.94;53.24;99814.45;107894;1274;96996;-66
2022/08/10 00:36:57;;;;;;;13.00;5.20;;;;;;;14.92;53.37;99817.48;107788;1274;112867;-65
2022/08/10 00:39:27;;;;;;;16.80;6.10;;;;;;;14.88;53.38;99819.71;107918;1274;97099;-66
2022/08/10 00:41:55;;;;;;;12.60;5.20;;;;;;;14.84;53.44;99819.35;107923;1274;108678;-66
2022/08/10 00:44:39;;;;;;;14.60;5.10;;;;;;;14.81;53.59;99813.48;107920;1274;97048;-65
2022/08/10 00:47:08;;;;;;;13.40;5.10;;;;;;;14.80;53.64;99815.39;107942;1274;97422;-66
2022/08/10 00:49:56;;;;;;;15.70;5.10;;;;;;;14.76;53.68;99813.38;107915;1274;112897;-67
2022/08/10 00:52:25;;;;;;;14.00;5.20;;;;;;;14.74;53.72;99815.13;107963;1274;98271;-66
2022/08/10 00:54:54;;;;;;;14.00;5.30;;;;;;;14.70;53.74;99808.98;107919;1274;107753;-66
2022/08/10 00:57:24;;;;;;;14.20;5.30;;;;;;;14.67;53.90;99809.95;107927;1274;97316;-66
2022/08/10 00:59:52;;;;;;;13.30;5.60;;;;;;;14.64;54.00;99806.02;107946;1274;97352;-66
2022/08/10 01:02:30;;;;;;;11.50;4.80;;;;;;;14.65;54.11;99803.63;107910;1274;112957;-66
2022/08/10 01:05:03;;;;;;;15.90;5.50;;;;;;;14.64;54.10;99806.23;107918;1274;97039;-66
2022/08/10 01:08:00;;;;;;;14.80;5.40;;;;;;;14.61;54.11;99806.25;107931;1274;107809;-66
2022/08/10 01:10:37;;;;;;;14.30;5.50;;;;;;;14.56;54.16;99804.32;107928;1274;97043;-67
2022/08/10 01:13:29;;;;;;;12.20;4.80;;;;;;;14.54;54.28;99805.86;107921;1274;97093;-66
2022/08/10 01:16:04;;;;;;;13.50;5.30;;;;;;;14.53;54.41;99805.65;107902;1274;112756;-65
2022/08/10 01:18:41;;;;;;;12.50;4.80;;;;;;;14.51;54.44;99802.73;107927;1274;97445;-66
2022/08/10 01:21:48;;;;;;;13.30;5.00;;;;;;;14.47;54.51;99799.83;107842;1275;107890;-66
2022/08/10 01:24:42;;;;;;;17.50;5.20;;;;;;;14.44;54.55;99802.73;107620;1274;97566;-65
2022/08/10 01:27:43;;;;;;;12.90;5.20;;;;;;;14.39;54.61;99807.39;107942;1274;97103;-66
2022/08/10 01:30:13;;;;;;;15.80;5.20;;;;;;;14.33;54.68;99807.87;107934;1274;112847;-66
2022/08/10 01:32:59;;;;;;;11.70;4.70;;;;;;;14.29;54.65;99813.02;107932;1274;97025;-65
2022/08/10 01:35:51;;;;;;;13.20;4.80;;;;;;;14.25;54.80;99810.20;107918;1274;107535;-65
2022/08/10 01:38:27;;;;;;;11.10;5.00;;;;;;;14.23;54.88;99808.94;107900;1274;97034;-66
2022/08/10 01:41:09;;;;;;;10.90;4.90;;;;;;;14.22;54.92;99814.73;107888;1274;99025;-66
2022/08/10 01:43:52;;;;;;;14.80;5.30;;;;;;;14.20;54.93;99813.16;107932;1274;112670;-66
2022/08/10 01:46:23;;;;;;;11.90;5.40;;;;;;;14.18;55.05;99816.54;107923;1274;97179;-66
2022/08/10 01:48:54;;;;;;;15.60;5.10;;;;;;;14.15;55.00;99812.66;107922;1274;107820;-66
2022/08/10 01:51:29;;;;;;;13.60;4.90;;;;;;;14.11;55.13;99813.11;107908;1274;97006;-66
2022/08/10 01:54:01;;;;;;;14.80;5.30;;;;;;;14.09;55.17;99811.30;107944;1274;96973;-66
2022/08/10 01:56:32;;;;;;;11.20;5.00;;;;;;;14.07;55.27;99811.61;107697;1276;112909;-66
2022/08/10 01:59:08;;;;;;;12.00;5.00;;;;;;;14.05;55.34;99808.69;107927;1274;97027;-65
2022/08/10 02:01:40;;;;;;;14.50;5.20;;;;;;;14.04;55.29;99812.35;107896;1274;107142;-66
2022/08/10 02:04:11;;;;;;;14.60;5.40;;;;;;;14.03;55.49;99814.08;107924;1274;97064;-66
2022/08/10 02:06:49;;;;;;;17.20;6.00;;;;;;;14.02;55.56;99812.54;107935;1274;96970;-66
2022/08/10 02:09:20;;;;;;;16.70;5.50;;;;;;;14.01;55.55;99817.04;107921;1274;112910;-66
2022/08/10 02:11:50;;;;;;;15.40;5.30;;;;;;;14.00;55.64;99819.77;107947;1274;97061;-66
2022/08/10 02:14:40;;;;;;;17.00;6.00;;;;;;;14.00;55.73;99818.73;107858;1274;107908;-66
2022/08/10 02:17:12;;;;;;;21.10;5.90;;;;;;;13.97;55.82;99817.65;107913;1274;97072;-66
2022/08/10 02:20:06;;;;;;;13.80;5.80;;;;;;;13.95;55.83;99816.96;107945;1274;96997;-67
2022/08/10 02:22:37;;;;;;;12.60;5.30;;;;;;;13.92;55.82;99819.86;107940;1274;112994;-67
2022/08/10 02:25:07;;;;;;;14.20;5.10;;;;;;;13.93;55.96;99828.90;107904;1274;98272;-66
2022/08/10 02:27:39;;;;;;;14.40;5.90;;;;;;;13.91;55.99;99827.24;107723;1276;107881;-65
2022/08/10 02:30:09;;;;;;;15.90;5.70;;;;;;;13.89;55.97;99830.76;107844;1274;97026;-66
2022/08/10 02:32:37;;;;;;;15.60;5.60;;;;;;;13.88;56.12;99828.92;107924;1274;97069;-66
2022/08/10 02:35:09;;;;;;;15.70;5.90;;;;;;;13.86;56.14;99828.67;107948;1272;113314;-66
2022/08/10 02:37:52;;;;;;;14.20;5.60;;;;;;;13.83;56.18;99828.90;107932;1273;97475;-66
2022/08/10 02:40:20;;;;;;;16.70;6.20;;;;;;;13.80;56.14;99827.49;107838;1274;107927;-65
2022/08/10 02:43:24;;;;;;;13.30;6.10;;;;;;;13.79;56.33;99828.14;107794;1274;96987;-65
2022/08/10 02:46:15;;;;;;;14.70;5.50;;;;;;;13.75;56.40;99824.86;107761;1274;97089;-65
2022/08/10 02:48:58;;;;;;;15.00;5.70;;;;;;;13.73;56.41;99823.23;107896;1274;112625;-66
2022/08/10 02:51:35;;;;;;;18.70;7.00;;;;;;;13.72;56.54;99821.13;107913;1274;97168;-66
2022/08/10 02:54:31;;;;;;;13.30;5.70;;;;;;;13.71;56.54;99823.88;107912;1274;107828;-66
2022/08/10 02:57:13;;;;;;;16.60;5.90;;;;;;;13.73;56.72;99826.23;107798;1274;97071;-65
2022/08/10 02:59:44;;;;;;;16.50;6.40;;;;;;;13.75;56.63;99826.67;107770;1274;97503;-65
2022/08/10 03:02:18;;;;;;;14.70;5.30;;;;;;;13.75;56.73;99827.75;107821;1274;112857;-66
2022/08/10 03:04:52;;;;;;;11.90;5.60;;;;;;;13.75;56.69;99829.52;107865;1274;97100;-65
2022/08/10 03:07:28;;;;;;;18.80;6.00;;;;;;;13.75;56.85;99826.83;107936;1272;105686;-66
2022/08/10 03:10:20;;;;;;;13.40;5.20;;;;;;;13.73;56.83;99832.81;107883;1274;97020;-65
2022/08/10 03:12:51;;;;;;;17.10;6.30;;;;;;;13.71;56.97;99836.53;107901;1274;97064;-66
2022/08/10 03:15:21;;;;;;;12.50;5.10;;;;;;;13.70;57.07;99835.71;107892;1274;112900;-66
2022/08/10 03:17:51;;;;;;;12.80;5.00;;;;;;;13.69;57.03;99834.17;107939;1274;97034;-66
2022/08/10 03:20:28;;;;;;;14.90;5.70;;;;;;;13.66;57.00;99836.16;107807;1274;107953;-65
2022/08/10 03:23:12;;;;;;;16.10;5.40;;;;;;;13.66;57.13;99828.91;107869;1275;97474;-66
2022/08/10 03:25:42;;;;;;;14.60;5.90;;;;;;;13.64;57.31;99832.78;107921;1274;96984;-66
2022/08/10 03:28:23;;;;;;;17.70;7.00;;;;;;;13.66;57.38;99834.04;107900;1274;111963;-65
2022/08/10 03:30:52;;;;;;;16.10;6.30;;;;;;;13.65;57.37;99831.09;107766;1276;97062;-64
2022/08/10 03:33:21;;;;;;;15.80;5.80;;;;;;;13.67;57.30;99841.24;107895;1274;107096;-65
2022/08/10 03:35:50;;;;;;;16.00;6.00;;;;;;;13.66;57.37;99839.35;107888;1274;97111;-65
2022/08/10 03:38:43;;;;;;;13.30;5.50;;;;;;;13.69;57.55;99845.98;107929;1274;96969;-65
2022/08/10 03:41:12;;;;;;;11.40;5.10;;;;;;;13.67;57.54;99846.11;107908;1274;111825;-65
2022/08/10 03:43:48;;;;;;;13.80;6.00;;;;;;;13.66;57.59;99847.56;107992;1274;97079;-66
2022/08/10 03:46:20;;;;;;;16.30;6.40;;;;;;;13.65;57.60;99851.54;107827;1275;109085;-64
2022/08/10 03:48:52;;;;;;;16.80;6.20;;;;;;;13.67;57.68;99860.70;107926;1274;97016;-65
2022/08/10 03:51:21;;;;;;;17.90;7.80;;;;;;;13.67;57.60;99863.23;106773;1275;1457216;-64
2022/08/10 03:53:49;;;;;;;14.90;5.50;;;;;;;13.67;57.68;99860.38;107871;1274;112657;-65
2022/08/10 03:56:35;;;;;;;;;;;;;;;13.67;57.87;99855.89;107931;1274;97723;-64
2022/08/10 03:59:09;;;;;;;14.70;6.20;;;;;;;13.64;57.85;99855.94;107907;1276;107700;-66
2022/08/10 04:01:37;;;;;;;14.40;6.40;;;;;;;13.65;57.85;99855.37;107928;1274;97015;-65
2022/08/10 04:04:26;;;;;;;16.70;5.90;;;;;;;13.66;58.02;99856.50;107964;1274;96905;-65
2022/08/10 04:07:00;;;;;;;18.90;6.10;;;;;;;13.68;57.95;99859.20;107942;1274;111877;-64
2022/08/10 04:09:30;;;;;;;18.10;6.60;;;;;;;13.70;58.18;99851.38;107966;1274;97042;-65
2022/08/10 04:12:19;;;;;;;16.80;6.50;;;;;;;13.74;58.16;99853.65;107934;1274;107841;-66
2022/08/10 04:14:47;;;;;;;15.40;7.00;;;;;;;13.77;58.25;99858.73;107953;1274;96952;-65
2022/08/10 04:17:23;;;;;;;19.40;6.40;;;;;;;13.79;58.21;99855.39;107833;1276;97094;-66
2022/08/10 04:20:37;;;;;;;15.00;6.70;;;;;;;13.83;58.40;99853.13;107898;1274;112843;-66
2022/08/10 04:23:17;;;;;;;18.10;6.50;;;;;;;13.86;58.40;99853.63;107917;1274;96983;-66
2022/08/10 04:25:45;;;;;;;16.00;6.10;;;;;;;13.88;58.42;99851.71;107941;1274;107851;-66
2022/08/10 04:28:13;;;;;;;17.40;7.00;;;;;;;13.93;58.46;99857.40;107846;1275;97003;-65
2022/08/10 04:30:43;;;;;;;19.40;6.70;;;;;;;13.95;58.51;99857.93;107959;1274;97027;-66
2022/08/10 04:33:14;;;;;;;20.60;7.00;;;;;;;14.02;58.64;99861.56;107918;1274;114843;-65
2022/08/10 04:35:44;;;;;;;26.70;8.30;;;;;;;14.06;58.47;99863.43;107794;1276;97139;-66
2022/08/10 04:38:13;;;;;;;22.40;7.60;;;;;;;14.09;58.66;99864.41;107888;1276;107564;-66
2022/08/10 04:40:42;;;;;;;28.60;7.00;;;;;;;14.14;58.75;99866.71;107908;1274;97118;-66
2022/08/10 04:43:10;;;;;;;29.70;7.70;;;;;;;14.20;58.65;99867.19;107907;1274;96922;-65
2022/08/10 04:45:41;;;;;;;21.50;7.00;;;;;;;14.24;58.82;99862.05;107823;1276;113090;-66
2022/08/10 04:48:21;;;;;;;26.70;7.10;;;;;;;14.27;58.91;99870.39;107793;1274;97333;-65
2022/08/10 04:51:12;;;;;;;26.10;7.60;;;;;;;14.29;59.02;99870.61;107836;1274;108034;-66
2022/08/10 04:53:49;;;;;;;19.80;7.00;;;;;;;14.35;58.96;99872.27;107914;1274;97042;-66
2022/08/10 04:56:36;;;;;;;23.10;7.70;;;;;;;14.41;59.09;99872.23;107930;1274;96964;-65
2022/08/10 04:59:05;;;;;;;19.70;6.80;;;;;;;14.46;59.04;99870.27;107887;1275;113037;-65
2022/08/10 05:01:35;;;;;;;20.90;7.70;;;;;;;14.51;59.14;99874.34;107919;1274;97094;-67
2022/08/10 05:04:23;;;;;;;21.50;7.60;;;;;;;14.57;59.06;99878.86;107771;1274;107825;-67
2022/08/10 05:07:08;;;;;;;17.70;6.90;;;;;;;14.62;59.25;99879.41;107853;1276;96954;-66
2022/08/10 05:09:39;;;;;;;22.90;7.60;;;;;;;14.65;59.24;99879.30;107935;1274;96988;-65
2022/08/10 05:12:28;;;;;;;23.90;8.10;;;;;;;14.69;59.12;99882.95;107869;1276;114204;-66
2022/08/10 05:14:56;;;;;;;20.60;7.60;;;;;;;14.72;59.23;99882.02;107949;1274;97023;-67
2022/08/10 05:17:23;;;;;;;20.80;7.60;;;;;;;14.76;59.37;99876.16;107919;1274;106844;-65
2022/08/10 05:19:51;;;;;;;19.50;7.80;;;;;;;14.82;59.45;99879.48;107893;1274;97216;-67
2022/08/10 05:22:42;;;;;;;18.60;7.40;;;;;;;14.88;59.54;99875.42;107908;1275;96939;-67
2022/08/10 05:25:13;;;;;;;20.20;8.10;;;;;;;14.94;59.52;99872.83;107504;1276;112590;-67
2022/08/10 05:27:42;;;;;;;17.80;7.50;;;;;;;15.00;59.51;99871.33;107899;1274;97109;-67
2022/08/10 05:30:14;;;;;;;19.90;7.50;;;;;;;15.06;59.57;99873.38;107780;1274;106300;-66
2022/08/10 05:32:42;;;;;;;17.90;7.30;;;;;;;15.12;59.65;99873.79;107756;1275;97090;-67
2022/08/10 05:35:27;;;;;;;;;;;;;;;15.22;59.74;99876.91;107912;1274;97092;-67
2022/08/10 05:37:57;;;;;;;18.90;7.00;;;;;;;15.30;59.89;99878.20;107867;1274;112835;-67
2022/08/10 05:40:43;;;;;;;16.40;6.50;;;;;;;15.44;59.85;99881.75;107773;1276;97458;-66
2022/08/10 05:43:15;;;;;;;;;;;;;;;15.55;59.86;99883.75;107869;1274;107854;-67
2022/08/10 05:45:44;;;;;;;17.90;6.30;;;;;;;15.63;59.86;99881.34;107826;1274;98197;-67
2022/08/10 05:48:33;;;;;;;16.40;6.40;;;;;;;15.74;59.90;99882.95;107789;1275;97452;-67
2022/08/10 05:51:22;;;;;;;18.10;7.10;;;;;;;15.84;59.87;99882.17;107883;1274;113026;-67
2022/08/10 05:53:50;;;;;;;15.80;7.10;;;;;;;15.94;59.90;99888.16;107909;1274;98183;-67
2022/08/10 05:56:36;;;;;;;15.80;6.80;;;;;;;16.01;59.95;99885.05;107833;1274;107774;-67
2022/08/10 05:59:27;;;;;;;16.80;6.30;;;;;;;16.09;59.87;99886.63;107828;1276;97054;-67
2022/08/10 06:02:25;;;;;;;32.80;7.80;;;;;;;16.16;59.77;99890.89;107792;1274;97009;-67
2022/08/10 06:05:10;;;;;;;19.20;7.00;;;;;;;16.20;60.01;99886.92;107809;1275;112955;-66
2022/08/10 06:08:00;;;;;;;16.70;6.50;;;;;;;16.27;59.92;99887.27;107895;1274;97033;-67
2022/08/10 06:10:29;;;;;;;17.50;6.70;;;;;;;16.33;59.90;99885.35;107659;1274;108700;-67
2022/08/10 06:16:01;;;;;;;21.50;6.70;;;;;;;16.40;59.94;99877.64;107857;1274;97154;-65
2022/08/10 06:18:29;;;;;;;16.10;6.80;;;;;;;16.44;59.85;99869.54;107817;1275;112913;-66
2022/08/10 06:20:59;;;;;;;16.00;6.40;;;;;;;16.48;59.87;99873.10;107853;1274;97090;-67
2022/08/10 06:23:29;;;;;;;16.60;6.50;;;;;;;16.53;60.04;99868.46;107677;1276;107983;-66
2022/08/10 06:25:57;;;;;;;17.70;6.80;;;;;;;16.59;59.88;99878.48;107793;1276;97281;-65
2022/08/10 06:28:55;;;;;;;17.00;6.30;;;;;;;16.61;60.01;99881.13;107849;1274;97445;-66
2022/08/10 06:31:35;;;;;;;21.10;6.40;;;;;;;16.66;59.99;99879.54;107871;1274;113000;-66
2022/08/10 06:34:25;;;;;;;16.50;6.10;;;;;;;16.73;60.09;99879.64;107907;1274;97088;-66
2022/08/10 06:36:56;;;;;;;18.30;6.90;;;;;;;16.76;59.96;99879.40;107795;1275;107711;-65
2022/08/10 06:39:25;;;;;;;16.90;6.80;;;;;;;16.81;60.15;99880.56;107823;1275;97379;-67
2022/08/10 06:42:28;;;;;;;17.50;6.10;;;;;;;16.88;60.15;99882.50;107875;1274;97460;-67
2022/08/10 06:45:00;;;;;;;16.10;6.50;;;;;;;16.95;60.23;99879.20;107874;1274;111842;-67
2022/08/10 06:47:52;;;;;;;19.30;6.60;;;;;;;17.00;59.96;99880.29;107865;1274;97532;-67
2022/08/10 06:50:25;;;;;;;17.80;6.80;;;;;;;17.01;60.10;99871.91;107844;1274;107975;-66
2022/08/10 06:53:17;;;;;;;15.50;5.90;;;;;;;17.10;60.08;99875.63;107795;1274;97534;-67
2022/08/10 06:55:52;;;;;;;17.50;6.60;;;;;;;17.16;60.15;99880.85;107834;1276;98465;-67
2022/08/10 06:58:27;;;;;;;17.10;6.90;;;;;;;17.19;60.05;99877.36;107836;1274;112954;-66
2022/08/10 07:00:55;;;;;;;17.80;7.30;;;;;;;17.27;60.27;99872.22;107795;1274;97504;-66
2022/08/10 07:03:32;;;;;;;17.90;7.10;;;;;;;17.33;60.09;99874.51;107757;1275;108170;-67
2022/08/10 07:06:03;;;;;;;16.90;6.50;;;;;;;17.39;60.23;99872.52;107794;1274;97421;-68
2022/08/10 07:08:33;;;;;;;19.10;6.50;;;;;;;17.51;60.18;99875.77;107647;1276;97481;-68
2022/08/10 07:11:02;;;;;;;15.20;6.10;;;;;;;17.61;60.05;99873.85;107804;1275;112860;-69
2022/08/10 07:13:31;;;;;;;16.30;6.20;;;;;;;17.78;60.11;99867.09;107771;1275;97426;-68
2022/08/10 07:16:20;;;;;;;15.20;5.70;;;;;;;19.21;58.57;99866.20;107788;1276;107721;-68
2022/08/10 07:18:48;;;;;;;12.80;5.00;;;;;;;20.68;57.96;99868.97;107792;1275;98161;-66
2022/08/10 07:21:16;;;;;;;17.60;5.60;;;;;;;22.31;57.85;99865.45;107831;1275;97122;-68
2022/08/10 07:23:46;;;;;;;14.00;5.10;;;;;;;23.68;57.55;99861.84;107716;1276;112849;-66
2022/08/10 07:26:29;;;;;;;16.40;5.00;;;;;;;25.44;57.04;99859.51;107511;1276;97421;-68
2022/08/10 07:28:59;;;;;;;16.60;5.00;;;;;;;26.76;56.56;99856.92;107805;1276;106562;-68
2022/08/10 07:31:27;;;;;;;19.10;5.10;;;;;;;28.17;56.60;99857.24;107764;1275;97063;-68
2022/08/10 07:34:19;;;;;;;13.40;4.80;;;;;;;29.58;55.87;99850.78;107827;1275;97054;-79
2022/08/10 07:37:01;;;;;;;13.80;4.60;;;;;;;30.99;55.86;99855.63;107802;1276;112766;-82
2022/08/10 07:39:34;;;;;;;10.90;4.10;;;;;;;32.41;55.63;99857.34;107518;1275;97586;-78
2022/08/10 07:42:24;;;;;;;;;;;;;;;33.82;54.65;99854.64;107799;1276;107533;-68
2022/08/10 07:44:52;;;;;;;9.20;4.40;;;;;;;34.84;54.24;99853.98;107793;1275;98338;-67
2022/08/10 07:47:26;;;;;;;12.00;4.60;;;;;;;35.59;53.91;99852.61;107830;1275;97042;-75
2022/08/10 07:50:17;;;;;;;11.40;4.20;;;;;;;36.60;52.84;99854.38;107814;1275;112680;-78
2022/08/10 07:52:47;;;;;;;19.20;5.60;;;;;;;37.33;52.60;99858.70;107702;1276;98110;-79
2022/08/10 07:55:18;;;;;;;12.40;4.30;;;;;;;38.00;51.83;99854.88;107818;1274;107738;-76
2022/08/10 07:58:07;;;;;;;11.50;3.90;;;;;;;38.53;50.90;99854.48;107596;1276;98134;-74
2022/08/10 08:00:36;;;;;;;10.00;4.00;;;;;;;39.18;50.33;99853.58;107832;1276;96998;-75
2022/08/10 08:03:06;;;;;;;8.60;3.90;;;;;;;39.66;49.90;99856.79;107700;1276;112789;-76
2022/08/10 08:05:34;;;;;;;11.40;3.90;;;;;;;39.47;48.96;99854.52;107783;1275;97499;-74
2022/08/10 08:08:23;;;;;;;9.70;3.70;;;;;;;38.72;48.10;99854.18;107877;1275;108772;-73
2022/08/10 08:10:56;;;;;;;9.80;3.60;;;;;;;39.10;47.63;99850.93;107790;1275;97100;-73
2022/08/10 08:13:26;;;;;;;11.30;4.40;;;;;;;39.74;46.90;99850.77;107848;1274;97065;-72
2022/08/10 08:15:57;;;;;;;9.70;4.60;;;;;;;40.34;46.15;99855.29;107829;1275;112783;-71
2022/08/10 08:18:46;;;;;;;12.20;5.20;;;;;;;40.79;45.01;99854.66;107905;1274;97067;-72
2022/08/10 08:21:34;;;;;;;6.10;3.30;;;;;;;41.06;44.64;99852.35;107894;1274;107884;-72
2022/08/10 08:24:23;;;;;;;8.90;4.00;;;;;;;41.48;44.35;99845.61;107911;1274;99038;-73
2022/08/10 08:27:02;;;;;;;10.50;5.40;;;;;;;41.80;42.49;99848.46;107940;1274;97655;-72
2022/08/10 08:29:37;;;;;;;12.70;5.50;;;;;;;41.38;42.32;99846.73;107873;1274;112822;-73
2022/08/10 08:32:05;;;;;;;9.40;3.60;;;;;;;40.36;42.28;99851.15;107862;1276;97503;-78
2022/08/10 08:34:37;;;;;;;21.20;8.40;;;;;;;40.41;41.26;99846.71;107727;1276;107754;-75
2022/08/10 08:37:08;;;;;;;14.60;6.70;;;;;;;40.52;40.81;99843.65;107820;1275;97228;-73
2022/08/10 08:39:37;;;;;;;10.90;5.30;;;;;;;40.93;40.35;99842.08;107899;1274;97142;-74
2022/08/10 08:42:17;;;;;;;8.30;3.90;;;;;;;41.25;39.51;99836.52;107782;1275;112753;-72
2022/08/10 08:45:22;;;;;;;13.90;4.40;;;;;;;40.67;39.18;99838.77;107802;1275;97473;-71
2022/08/10 08:48:08;;;;;;;11.60;4.30;;;;;;;39.89;38.69;99832.36;107781;1275;107870;-75
2022/08/10 08:51:00;;;;;;;10.00;4.00;;;;;;;39.02;37.91;99832.27;107859;1274;97047;-73
2022/08/10 08:54:06;;;;;;;11.10;3.90;;;;;;;38.14;37.42;99830.23;107816;1275;97060;-73
2022/08/10 08:56:45;;;;;;;17.60;7.20;;;;;;;38.35;36.59;99824.30;107948;1274;111988;-72
2022/08/10 08:59:30;;;;;;;8.90;4.70;;;;;;;38.80;36.23;99829.15;107776;1274;97472;-74
2022/08/10 09:02:04;;;;;;;20.10;7.70;;;;;;;38.69;35.87;99822.80;107857;1276;109470;-75
2022/08/10 09:04:54;;;;;;;16.00;5.80;;;;;;;38.24;35.97;99830.42;107826;1275;97344;-74
2022/08/10 09:07:42;;;;;;;12.40;4.60;;;;;;;38.36;35.18;99823.96;107935;1274;98035;-72
2022/08/10 09:11:18;;;;;;;8.50;3.30;;;;;;;38.02;35.04;99826.46;107757;1274;112400;-71
2022/08/10 09:14:15;;;;;;;8.80;3.90;;;;;;;38.30;34.39;99823.64;107081;1282;97522;-73
2022/08/10 09:17:02;;;;;;;7.00;3.30;;;;;;;38.80;34.14;99816.30;107855;1274;107126;-71
2022/08/10 09:19:48;;;;;;;9.30;3.80;;;;;;;38.84;33.56;99818.63;107805;1276;97126;-70
2022/08/10 09:22:53;;;;;;;5.10;2.80;;;;;;;39.22;33.68;99818.23;107835;1274;97067;-72
2022/08/10 09:25:33;;;;;;;5.20;3.00;;;;;;;38.78;33.12;99815.77;107931;1274;112733;-77
2022/08/10 09:28:06;;;;;;;6.80;2.70;;;;;;;38.63;33.07;99818.63;107798;1276;97437;-79
2022/08/10 09:30:45;;;;;;;9.10;4.50;;;;;;;37.95;32.68;99815.55;107816;1275;107697;-75
2022/08/10 09:34:10;;;;;;;6.30;2.70;;;;;;;37.11;32.85;99817.61;107930;1274;97219;-75
2022/08/10 09:37:07;;;;;;;4.10;2.30;;;;;;;36.22;32.36;99818.88;107827;1274;96985;-72
2022/08/10 09:40:01;;;;;;;4.60;3.10;;;;;;;35.69;32.36;99819.58;107801;1274;112642;-76
2022/08/10 09:43:08;;;;;;;6.40;2.80;;;;;;;36.00;32.00;99807.08;107933;1274;97596;-72
2022/08/10 09:46:32;;;;;;;4.80;2.90;;;;;;;36.07;31.32;99798.50;107874;1276;107930;-79
2022/08/10 09:49:09;;;;;;;6.00;2.60;;;;;;;36.43;31.70;99787.43;107944;1274;97171;-75
2022/08/10 09:52:00;;;;;;;6.90;2.70;;;;;;;36.45;31.27;99784.23;107912;1274;97374;-72
2022/08/10 09:54:53;;;;;;;5.10;2.30;;;;;;;35.74;31.35;99784.92;107898;1274;112648;-73
2022/08/10 09:57:44;;;;;;;;;;;;;;;35.18;31.30;99795.48;107869;1275;97455;-71
2022/08/10 10:00:29;;;;;;;7.80;3.40;;;;;;;34.52;31.26;99787.91;107873;1274;107759;-71
2022/08/10 10:03:15;;;;;;;6.70;2.80;;;;;;;34.24;31.48;99779.07;107878;1275;97063;-71
2022/08/10 10:06:02;;;;;;;8.20;2.50;;;;;;;33.79;31.23;99780.66;107945;1274;97637;-68
2022/08/10 10:08:57;;;;;;;6.90;2.90;;;;;;;33.14;31.11;99783.39;107877;1275;111650;-72
2022/08/10 10:12:05;;;;;;;9.10;2.80;;;;;;;32.23;30.74;99778.59;107818;1275;97576;-68
2022/08/10 10:15:20;;;;;;;7.40;2.40;;;;;;;31.36;31.17;99776.42;107851;1274;107711;-69
2022/08/10 10:17:59;;;;;;;6.30;2.40;;;;;;;30.61;30.81;99776.66;107895;1274;97025;-69
2022/08/10 10:20:48;;;;;;;7.40;2.40;;;;;;;30.18;30.96;99772.94;107798;1276;97116;-68
2022/08/10 10:23:41;;;;;;;4.40;2.10;;;;;;;29.79;30.97;99769.33;107891;1274;112836;-68
2022/08/10 10:26:55;;;;;;;;;;;;;;;29.50;31.07;99765.30;107930;1274;97073;-68
2022/08/10 10:29:40;;;;;;;6.30;2.50;;;;;;;29.27;31.30;99763.36;107834;1275;107858;-69
2022/08/10 10:32:51;;;;;;;7.10;2.50;;;;;;;29.10;31.26;99768.27;107909;1274;97021;-69
2022/08/10 10:35:49;;;;;;;4.70;2.10;;;;;;;28.95;31.44;99769.88;107647;1274;98031;-70
2022/08/10 10:38:20;;;;;;;3.40;1.90;;;;;;;28.81;31.51;99765.02;107896;1274;112725;-69
2022/08/10 10:40:58;;;;;;;6.10;1.90;;;;;;;28.54;31.24;99766.10;107780;1274;97541;-68
2022/08/10 10:43:56;;;;;;;5.50;1.80;;;;;;;28.28;31.61;99764.00;107809;1277;107824;-69
2022/08/10 10:46:50;;;;;;;5.70;2.00;;;;;;;28.03;31.50;99772.84;107879;1274;97481;-68
2022/08/10 10:49:29;;;;;;;5.00;2.10;;;;;;;27.74;31.75;99773.09;107941;1274;97039;-68
2022/08/10 10:52:19;;;;;;;7.90;2.20;;;;;;;27.57;31.97;99771.96;107915;1274;112752;-71
2022/08/10 10:55:14;;;;;;;3.40;2.00;;;;;;;27.40;31.95;99764.16;107923;1274;97805;-70
2022/08/10 10:58:06;;;;;;;4.80;2.00;;;;;;;27.29;31.85;99763.41;107906;1274;107653;-70
2022/08/10 11:00:54;;;;;;;3.70;2.00;;;;;;;27.18;32.22;99755.92;107875;1274;97301;-68
2022/08/10 11:03:43;;;;;;;4.20;2.10;;;;;;;27.15;32.36;99752.25;107925;1274;97007;-68
2022/08/10 11:06:38;;;;;;;3.10;1.80;;;;;;;27.19;32.54;99749.59;107896;1274;112906;-69
2022/08/10 11:09:17;;;;;;;8.20;2.10;;;;;;;27.24;32.41;99747.17;107894;1274;97953;-67
2022/08/10 11:12:24;;;;;;;4.00;1.90;;;;;;;27.17;32.43;99745.13;107884;1274;107801;-77
2022/08/10 11:15:39;;;;;;;2.70;1.70;;;;;;;27.02;32.61;99739.85;107899;1274;97392;-72
2022/08/10 11:18:34;;;;;;;4.90;1.90;;;;;;;26.88;32.52;99743.25;107234;1276;97036;-74
2022/08/10 11:21:30;;;;;;;3.60;2.00;;;;;;;26.76;32.90;99737.89;107787;1276;112555;-70
2022/08/10 11:24:16;;;;;;;5.00;1.90;;;;;;;26.72;33.08;99738.95;107792;1277;97503;-69
2022/08/10 11:27:13;;;;;;;4.50;2.10;;;;;;;26.77;33.26;99734.54;107784;1276;108038;-74
2022/08/10 11:30:09;;;;;;;7.30;2.40;;;;;;;26.83;33.24;99732.81;107557;1277;97183;-70
2022/08/10 11:33:11;;;;;;;3.60;2.40;;;;;;;26.82;33.21;99732.45;107693;1277;97144;-70
2022/08/10 11:35:47;;;;;;;4.60;1.80;;;;;;;26.79;33.44;99725.33;107800;1276;113437;-69
2022/08/10 11:38:45;;;;;;;3.50;1.50;;;;;;;26.80;33.51;99727.05;107751;1277;97529;-69
2022/08/10 11:41:59;;;;;;;3.30;1.80;;;;;;;26.80;33.55;99728.61;107690;1276;106735;-69
2022/08/10 11:44:58;;;;;;;18.00;3.30;;;;;;;26.77;33.47;99728.84;107753;1277;97553;-72
2022/08/10 11:47:51;;;;;;;6.70;2.50;;;;;;;26.64;33.64;99732.03;107810;1276;97418;-76
2022/08/10 11:50:21;;;;;;;4.80;2.10;;;;;;;26.47;33.29;99740.91;107768;1274;113431;-78
2022/08/10 11:53:10;;;;;;;4.20;2.20;;;;;;;26.39;34.01;99734.10;107839;1275;97447;-78
2022/08/10 11:55:40;;;;;;;7.80;2.70;;;;;;;26.40;34.12;99729.99;107764;1276;107728;-78
2022/08/10 12:01:02;;;;;;;3.00;2.00;;;;;;;26.58;34.18;99714.92;107758;1277;97607;-78
2022/08/10 12:03:32;;;;;;;5.80;2.10;;;;;;;26.70;34.17;99711.08;107524;1276;112773;-77
2022/08/10 12:06:04;;;;;;;3.40;1.80;;;;;;;26.80;34.49;99715.80;107541;1277;98302;-77
2022/08/10 12:08:33;;;;;;;6.20;1.90;;;;;;;26.86;34.45;99708.09;107741;1277;107980;-78
2022/08/10 12:11:25;;;;;;;4.60;2.10;;;;;;;26.91;34.16;99707.64;107778;1276;97618;-71
2022/08/10 12:14:18;;;;;;;5.70;2.50;;;;;;;26.89;34.32;99703.77;107794;1277;97059;-72
2022/08/10 12:16:56;;;;;;;4.30;1.90;;;;;;;26.94;34.38;99707.27;107776;1275;112916;-72
2022/08/10 12:19:36;;;;;;;6.70;2.10;;;;;;;26.99;34.52;99696.34;107927;1274;97132;-72
2022/08/10 12:22:32;;;;;;;4.20;2.10;;;;;;;27.06;34.83;99700.48;107837;1274;107736;-72
2022/08/10 12:25:09;;;;;;;5.80;2.10;;;;;;;27.06;34.67;99703.97;107700;1274;97455;-74